sensor_id;sensor_type;location;lat;lon;timestamp;P1;durP1;ratioP1;P2;durP2;ratioP2
73859;SDS011;62197;51.632;13.700;2022-12-16T00:02:10;33.72;;;13.57;;
73859;SDS011;62197;51.632;13.700;2022-12-16T00:04:36;26.13;;;12.40;;
73859;SDS011;62197;51.632;13.700;2022-12-16T00:07:01;26.23;;;13.52;;
73859;SDS011;62197;51.632;13.700;2022-12-16T00:09:26;33.25;;;12.57;;
73859;SDS011;62197;51.632;13.700;2022-12-16T00:11:52;31.88;;;14.52;;
73859;SDS011;62197;51.632;13.700;2022-12-16T00:14:17;31.02;;;12.13;;
73859;SDS011;62197;51.632;13.700;2022-12-16T00:16:42;32.67;;;15.63;;
73859;SDS011;62197;51.632;13.700;2022-12-16T00:19:08;35.03;;;16.25;;
73859;SDS011;62197;51.632;13.700;2022-12-16T00:21:33;32.90;;;13.50;;
73859;SDS011;62197;51.632;13.700;2022-12-16T00:23:58;38.17;;;12.82;;
73859;SDS011;62197;51.632;13.700;2022-12-16T00:26:24;25.48;;;13.43;;
73859;SDS011;62197;51.632;13.700;2022-12-16T00:28:49;22.23;;;10.73;;
73859;SDS011;62197;51.632;13.700;2022-12-16T00:31:15;24.80;;;11.48;;
73859;SDS011;62197;51.632;13.700;2022-12-16T00:33:40;33.65;;;11.90;;
73859;SDS011;62197;51.632;13.700;2022-12-16T00:36:06;27.38;;;12.18;;
73859;SDS011;62197;51.632;13.700;2022-12-16T00:38:32;21.48;;;9.07;;
73859;SDS011;62197;51.632;13.700;2022-12-16T00:40:57;15.05;;;7.25;;
73859;SDS011;62197;51.632;13.700;2022-12-16T00:43:23;20.77;;;10.45;;
73859;SDS011;62197;51.632;13.700;2022-12-16T00:45:48;24.63;;;11.90;;
73859;SDS011;62197;51.632;13.700;2022-12-16T00:48:14;17.58;;;9.05;;
73859;SDS011;62197;51.632;13.700;2022-12-16T00:50:40;30.65;;;12.90;;
73859;SDS011;62197;51.632;13.700;2022-12-16T00:53:08;23.35;;;10.07;;
73859;SDS011;62197;51.632;13.700;2022-12-16T00:55:33;20.42;;;9.25;;
73859;SDS011;62197;51.632;13.700;2022-12-16T00:57:59;27.67;;;12.02;;
73859;SDS011;62197;51.632;13.700;2022-12-16T01:00:24;29.23;;;11.32;;
73859;SDS011;62197;51.632;13.700;2022-12-16T01:02:50;21.65;;;10.38;;
73859;SDS011;62197;51.632;13.700;2022-12-16T01:05:16;26.33;;;11.68;;
73859;SDS011;62197;51.632;13.700;2022-12-16T01:07:44;18.92;;;7.97;;
73859;SDS011;62197;51.632;13.700;2022-12-16T01:10:10;24.92;;;9.55;;
73859;SDS011;62197;51.632;13.700;2022-12-16T01:12:36;23.20;;;10.18;;
73859;SDS011;62197;51.632;13.700;2022-12-16T01:15:02;19.40;;;9.18;;
73859;SDS011;62197;51.632;13.700;2022-12-16T01:17:29;25.50;;;11.35;;
73859;SDS011;62197;51.632;13.700;2022-12-16T01:19:54;22.52;;;10.30;;
73859;SDS011;62197;51.632;13.700;2022-12-16T01:22:20;35.58;;;14.10;;
73859;SDS011;62197;51.632;13.700;2022-12-16T01:24:46;27.83;;;13.10;;
73859;SDS011;62197;51.632;13.700;2022-12-16T01:27:11;19.52;;;10.75;;
73859;SDS011;62197;51.632;13.700;2022-12-16T01:29:37;21.63;;;11.00;;
73859;SDS011;62197;51.632;13.700;2022-12-16T01:32:03;24.05;;;10.68;;
73859;SDS011;62197;51.632;13.700;2022-12-16T01:34:30;22.67;;;10.32;;
73859;SDS011;62197;51.632;13.700;2022-12-16T01:36:55;22.92;;;9.15;;
73859;SDS011;62197;51.632;13.700;2022-12-16T01:39:20;21.52;;;8.88;;
73859;SDS011;62197;51.632;13.700;2022-12-16T01:41:46;24.13;;;10.05;;
73859;SDS011;62197;51.632;13.700;2022-12-16T01:44:12;20.23;;;8.98;;
73859;SDS011;62197;51.632;13.700;2022-12-16T01:46:48;30.15;;;12.65;;
73859;SDS011;62197;51.632;13.700;2022-12-16T01:49:20;20.25;;;8.77;;
73859;SDS011;62197;51.632;13.700;2022-12-16T01:51:53;19.33;;;8.25;;
73859;SDS011;62197;51.632;13.700;2022-12-16T01:54:23;17.58;;;8.60;;
73859;SDS011;62197;51.632;13.700;2022-12-16T01:56:54;20.08;;;8.52;;
73859;SDS011;62197;51.632;13.700;2022-12-16T01:59:22;28.02;;;9.63;;
73859;SDS011;62197;51.632;13.700;2022-12-16T02:01:50;24.67;;;11.73;;
73859;SDS011;62197;51.632;13.700;2022-12-16T02:04:16;19.63;;;8.25;;
73859;SDS011;62197;51.632;13.700;2022-12-16T02:06:42;25.75;;;10.77;;
73859;SDS011;62197;51.632;13.700;2022-12-16T02:09:08;25.55;;;9.45;;
73859;SDS011;62197;51.632;13.700;2022-12-16T02:11:49;26.15;;;11.13;;
73859;SDS011;62197;51.632;13.700;2022-12-16T02:14:29;28.73;;;11.55;;
73859;SDS011;62197;51.632;13.700;2022-12-16T02:17:07;32.05;;;14.05;;
73859;SDS011;62197;51.632;13.700;2022-12-16T02:22:13;33.80;;;11.65;;
73859;SDS011;62197;51.632;13.700;2022-12-16T02:30:41;31.65;;;11.45;;
73859;SDS011;62197;51.632;13.700;2022-12-16T02:33:29;21.52;;;9.50;;
73859;SDS011;62197;51.632;13.700;2022-12-16T02:36:07;32.08;;;13.77;;
73859;SDS011;62197;51.632;13.700;2022-12-16T02:38:49;28.35;;;11.35;;
73859;SDS011;62197;51.632;13.700;2022-12-16T02:41:22;35.20;;;13.38;;
73859;SDS011;62197;51.632;13.700;2022-12-16T02:44:07;26.92;;;9.75;;
73859;SDS011;62197;51.632;13.700;2022-12-16T02:46:39;29.83;;;11.57;;
73859;SDS011;62197;51.632;13.700;2022-12-16T02:51:37;39.38;;;15.63;;
73859;SDS011;62197;51.632;13.700;2022-12-16T02:54:03;28.02;;;12.85;;
73859;SDS011;62197;51.632;13.700;2022-12-16T03:01:49;33.03;;;15.10;;
73859;SDS011;62197;51.632;13.700;2022-12-16T03:04:20;35.60;;;14.32;;
73859;SDS011;62197;51.632;13.700;2022-12-16T03:06:51;28.95;;;13.50;;
73859;SDS011;62197;51.632;13.700;2022-12-16T03:09:20;37.33;;;15.75;;
73859;SDS011;62197;51.632;13.700;2022-12-16T03:11:49;37.38;;;16.13;;
73859;SDS011;62197;51.632;13.700;2022-12-16T03:14:18;28.77;;;12.77;;
73859;SDS011;62197;51.632;13.700;2022-12-16T03:16:47;26.88;;;12.05;;
73859;SDS011;62197;51.632;13.700;2022-12-16T03:19:14;38.80;;;17.30;;
73859;SDS011;62197;51.632;13.700;2022-12-16T03:21:44;31.67;;;13.68;;
73859;SDS011;62197;51.632;13.700;2022-12-16T03:24:15;35.42;;;14.05;;
73859;SDS011;62197;51.632;13.700;2022-12-16T03:26:50;32.25;;;14.27;;
73859;SDS011;62197;51.632;13.700;2022-12-16T03:29:26;34.50;;;15.00;;
73859;SDS011;62197;51.632;13.700;2022-12-16T03:31:56;31.33;;;13.52;;
73859;SDS011;62197;51.632;13.700;2022-12-16T03:34:31;28.70;;;12.18;;
73859;SDS011;62197;51.632;13.700;2022-12-16T03:37:03;26.00;;;11.32;;
73859;SDS011;62197;51.632;13.700;2022-12-16T03:39:32;28.83;;;12.40;;
73859;SDS011;62197;51.632;13.700;2022-12-16T03:42:00;32.95;;;15.57;;
73859;SDS011;62197;51.632;13.700;2022-12-16T03:44:27;33.03;;;13.95;;
73859;SDS011;62197;51.632;13.700;2022-12-16T03:46:52;33.58;;;14.70;;
73859;SDS011;62197;51.632;13.700;2022-12-16T03:49:18;41.20;;;18.52;;
73859;SDS011;62197;51.632;13.700;2022-12-16T03:51:44;36.03;;;16.42;;
73859;SDS011;62197;51.632;13.700;2022-12-16T03:54:10;31.58;;;12.13;;
73859;SDS011;62197;51.632;13.700;2022-12-16T03:56:35;29.08;;;12.27;;
73859;SDS011;62197;51.632;13.700;2022-12-16T03:59:01;31.70;;;14.27;;
73859;SDS011;62197;51.632;13.700;2022-12-16T04:01:26;31.35;;;13.07;;
73859;SDS011;62197;51.632;13.700;2022-12-16T04:03:51;27.40;;;12.23;;
73859;SDS011;62197;51.632;13.700;2022-12-16T04:06:17;34.67;;;14.93;;
73859;SDS011;62197;51.632;13.700;2022-12-16T04:08:45;30.05;;;14.15;;
73859;SDS011;62197;51.632;13.700;2022-12-16T04:11:12;27.83;;;12.30;;
73859;SDS011;62197;51.632;13.700;2022-12-16T04:13:56;39.40;;;15.70;;
73859;SDS011;62197;51.632;13.700;2022-12-16T04:16:40;25.00;;;10.93;;
73859;SDS011;62197;51.632;13.700;2022-12-16T04:19:25;32.55;;;13.15;;
73859;SDS011;62197;51.632;13.700;2022-12-16T04:22:14;25.90;;;11.60;;
73859;SDS011;62197;51.632;13.700;2022-12-16T04:25:14;38.03;;;15.48;;
73859;SDS011;62197;51.632;13.700;2022-12-16T04:27:42;35.90;;;16.58;;
73859;SDS011;62197;51.632;13.700;2022-12-16T04:30:11;29.75;;;11.98;;
73859;SDS011;62197;51.632;13.700;2022-12-16T04:32:47;33.13;;;13.77;;
73859;SDS011;62197;51.632;13.700;2022-12-16T04:35:37;29.35;;;13.57;;
73859;SDS011;62197;51.632;13.700;2022-12-16T04:38:22;44.83;;;14.82;;
73859;SDS011;62197;51.632;13.700;2022-12-16T04:41:06;51.47;;;19.20;;
73859;SDS011;62197;51.632;13.700;2022-12-16T04:43:50;33.17;;;12.70;;
73859;SDS011;62197;51.632;13.700;2022-12-16T04:46:34;38.67;;;15.73;;
73859;SDS011;62197;51.632;13.700;2022-12-16T04:49:18;31.58;;;14.38;;
73859;SDS011;62197;51.632;13.700;2022-12-16T04:52:02;32.95;;;15.27;;
73859;SDS011;62197;51.632;13.700;2022-12-16T04:54:46;31.25;;;14.55;;
73859;SDS011;62197;51.632;13.700;2022-12-16T04:57:30;36.97;;;13.90;;
73859;SDS011;62197;51.632;13.700;2022-12-16T05:00:14;27.40;;;14.50;;
73859;SDS011;62197;51.632;13.700;2022-12-16T05:02:58;25.23;;;10.13;;
73859;SDS011;62197;51.632;13.700;2022-12-16T05:05:42;35.05;;;15.88;;
73859;SDS011;62197;51.632;13.700;2022-12-16T05:08:26;31.17;;;13.48;;
73859;SDS011;62197;51.632;13.700;2022-12-16T05:11:10;35.63;;;14.70;;
73859;SDS011;62197;51.632;13.700;2022-12-16T05:13:54;31.35;;;15.90;;
73859;SDS011;62197;51.632;13.700;2022-12-16T05:16:51;38.28;;;17.45;;
73859;SDS011;62197;51.632;13.700;2022-12-16T05:19:36;24.55;;;12.25;;
73859;SDS011;62197;51.632;13.700;2022-12-16T05:22:20;46.22;;;18.42;;
73859;SDS011;62197;51.632;13.700;2022-12-16T05:25:04;31.38;;;13.68;;
73859;SDS011;62197;51.632;13.700;2022-12-16T05:27:52;31.20;;;13.05;;
73859;SDS011;62197;51.632;13.700;2022-12-16T05:30:36;44.08;;;15.40;;
73859;SDS011;62197;51.632;13.700;2022-12-16T05:33:20;30.02;;;13.38;;
73859;SDS011;62197;51.632;13.700;2022-12-16T05:36:04;36.15;;;15.60;;
73859;SDS011;62197;51.632;13.700;2022-12-16T05:38:48;37.83;;;15.02;;
73859;SDS011;62197;51.632;13.700;2022-12-16T05:41:32;32.17;;;16.75;;
73859;SDS011;62197;51.632;13.700;2022-12-16T05:44:16;41.53;;;16.50;;
73859;SDS011;62197;51.632;13.700;2022-12-16T05:47:00;18.90;;;10.40;;
73859;SDS011;62197;51.632;13.700;2022-12-16T05:49:43;29.00;;;12.30;;
73859;SDS011;62197;51.632;13.700;2022-12-16T05:52:27;36.45;;;15.27;;
73859;SDS011;62197;51.632;13.700;2022-12-16T05:55:11;40.55;;;16.42;;
73859;SDS011;62197;51.632;13.700;2022-12-16T05:57:55;39.13;;;16.20;;
73859;SDS011;62197;51.632;13.700;2022-12-16T06:00:39;29.33;;;11.90;;
73859;SDS011;62197;51.632;13.700;2022-12-16T06:03:23;38.00;;;15.50;;
73859;SDS011;62197;51.632;13.700;2022-12-16T06:06:07;37.30;;;14.75;;
73859;SDS011;62197;51.632;13.700;2022-12-16T06:08:51;45.63;;;16.77;;
73859;SDS011;62197;51.632;13.700;2022-12-16T06:11:35;35.67;;;17.60;;
73859;SDS011;62197;51.632;13.700;2022-12-16T06:14:19;32.42;;;13.88;;
73859;SDS011;62197;51.632;13.700;2022-12-16T06:17:03;39.90;;;13.90;;
73859;SDS011;62197;51.632;13.700;2022-12-16T06:19:46;32.60;;;13.00;;
73859;SDS011;62197;51.632;13.700;2022-12-16T06:22:31;34.38;;;15.10;;
73859;SDS011;62197;51.632;13.700;2022-12-16T06:25:14;37.60;;;15.65;;
73859;SDS011;62197;51.632;13.700;2022-12-16T06:27:58;23.92;;;10.38;;
73859;SDS011;62197;51.632;13.700;2022-12-16T06:30:42;31.48;;;14.57;;
73859;SDS011;62197;51.632;13.700;2022-12-16T06:33:26;42.60;;;18.92;;
73859;SDS011;62197;51.632;13.700;2022-12-16T06:36:10;48.80;;;16.60;;
73859;SDS011;62197;51.632;13.700;2022-12-16T06:38:54;47.63;;;20.83;;
73859;SDS011;62197;51.632;13.700;2022-12-16T06:41:38;39.10;;;16.10;;
73859;SDS011;62197;51.632;13.700;2022-12-16T06:44:22;46.75;;;17.55;;
73859;SDS011;62197;51.632;13.700;2022-12-16T06:47:06;37.92;;;14.02;;
73859;SDS011;62197;51.632;13.700;2022-12-16T06:49:50;51.90;;;20.48;;
73859;SDS011;62197;51.632;13.700;2022-12-16T06:52:34;39.78;;;18.33;;
73859;SDS011;62197;51.632;13.700;2022-12-16T06:55:18;31.45;;;12.85;;
73859;SDS011;62197;51.632;13.700;2022-12-16T06:58:01;36.80;;;17.10;;
73859;SDS011;62197;51.632;13.700;2022-12-16T07:00:45;43.85;;;21.10;;
73859;SDS011;62197;51.632;13.700;2022-12-16T07:03:30;40.92;;;16.98;;
73859;SDS011;62197;51.632;13.700;2022-12-16T07:06:14;52.00;;;21.80;;
73859;SDS011;62197;51.632;13.700;2022-12-16T07:08:58;30.73;;;13.90;;
73859;SDS011;62197;51.632;13.700;2022-12-16T07:11:41;41.42;;;14.75;;
73859;SDS011;62197;51.632;13.700;2022-12-16T07:14:25;29.58;;;12.70;;
73859;SDS011;62197;51.632;13.700;2022-12-16T07:17:11;25.75;;;11.45;;
73859;SDS011;62197;51.632;13.700;2022-12-16T07:19:55;38.35;;;15.40;;
73859;SDS011;62197;51.632;13.700;2022-12-16T07:22:42;33.70;;;16.15;;
73859;SDS011;62197;51.632;13.700;2022-12-16T07:25:27;41.03;;;15.60;;
73859;SDS011;62197;51.632;13.700;2022-12-16T07:28:11;41.80;;;16.58;;
73859;SDS011;62197;51.632;13.700;2022-12-16T07:30:55;39.15;;;16.75;;
73859;SDS011;62197;51.632;13.700;2022-12-16T07:33:39;20.00;;;9.15;;
73859;SDS011;62197;51.632;13.700;2022-12-16T07:36:23;30.52;;;13.80;;
73859;SDS011;62197;51.632;13.700;2022-12-16T07:39:07;39.33;;;16.35;;
73859;SDS011;62197;51.632;13.700;2022-12-16T07:41:50;36.70;;;16.00;;
73859;SDS011;62197;51.632;13.700;2022-12-16T07:44:35;42.60;;;20.35;;
73859;SDS011;62197;51.632;13.700;2022-12-16T07:47:19;43.55;;;18.73;;
73859;SDS011;62197;51.632;13.700;2022-12-16T07:50:02;26.63;;;11.02;;
73859;SDS011;62197;51.632;13.700;2022-12-16T07:52:52;35.25;;;13.77;;
73859;SDS011;62197;51.632;13.700;2022-12-16T07:55:37;30.05;;;13.15;;
73859;SDS011;62197;51.632;13.700;2022-12-16T07:58:21;38.60;;;14.93;;
73859;SDS011;62197;51.632;13.700;2022-12-16T08:01:05;34.00;;;15.80;;
73859;SDS011;62197;51.632;13.700;2022-12-16T08:03:48;25.77;;;11.43;;
73859;SDS011;62197;51.632;13.700;2022-12-16T08:06:32;22.20;;;9.40;;
73859;SDS011;62197;51.632;13.700;2022-12-16T08:09:17;40.50;;;14.55;;
73859;SDS011;62197;51.632;13.700;2022-12-16T08:12:00;45.95;;;16.25;;
73859;SDS011;62197;51.632;13.700;2022-12-16T08:14:44;36.22;;;16.40;;
73859;SDS011;62197;51.632;13.700;2022-12-16T08:17:28;42.97;;;16.80;;
73859;SDS011;62197;51.632;13.700;2022-12-16T08:20:12;26.95;;;12.13;;
73859;SDS011;62197;51.632;13.700;2022-12-16T08:22:56;28.20;;;13.52;;
73859;SDS011;62197;51.632;13.700;2022-12-16T08:25:40;56.50;;;23.42;;
73859;SDS011;62197;51.632;13.700;2022-12-16T08:28:24;43.20;;;19.30;;
73859;SDS011;62197;51.632;13.700;2022-12-16T08:31:08;26.27;;;11.88;;
73859;SDS011;62197;51.632;13.700;2022-12-16T08:33:52;30.63;;;13.20;;
73859;SDS011;62197;51.632;13.700;2022-12-16T08:36:36;37.28;;;13.60;;
73859;SDS011;62197;51.632;13.700;2022-12-16T08:39:20;27.33;;;12.15;;
73859;SDS011;62197;51.632;13.700;2022-12-16T08:42:04;32.72;;;14.63;;
73859;SDS011;62197;51.632;13.700;2022-12-16T08:44:48;21.98;;;10.18;;
73859;SDS011;62197;51.632;13.700;2022-12-16T08:47:32;34.60;;;17.63;;
73859;SDS011;62197;51.632;13.700;2022-12-16T08:50:16;38.30;;;16.40;;
73859;SDS011;62197;51.632;13.700;2022-12-16T08:53:00;50.75;;;20.25;;
73859;SDS011;62197;51.632;13.700;2022-12-16T08:55:44;33.30;;;15.40;;
73859;SDS011;62197;51.632;13.700;2022-12-16T08:58:28;22.85;;;11.93;;
73859;SDS011;62197;51.632;13.700;2022-12-16T09:01:12;32.25;;;14.18;;
73859;SDS011;62197;51.632;13.700;2022-12-16T09:03:55;36.17;;;16.83;;
73859;SDS011;62197;51.632;13.700;2022-12-16T09:06:39;31.45;;;13.57;;
73859;SDS011;62197;51.632;13.700;2022-12-16T09:09:23;39.95;;;17.48;;
73859;SDS011;62197;51.632;13.700;2022-12-16T09:12:07;32.22;;;15.90;;
73859;SDS011;62197;51.632;13.700;2022-12-16T09:14:51;38.33;;;14.50;;
73859;SDS011;62197;51.632;13.700;2022-12-16T09:17:35;39.17;;;15.07;;
73859;SDS011;62197;51.632;13.700;2022-12-16T09:20:19;39.95;;;17.83;;
73859;SDS011;62197;51.632;13.700;2022-12-16T09:23:03;32.65;;;15.32;;
73859;SDS011;62197;51.632;13.700;2022-12-16T09:25:47;36.28;;;15.80;;
73859;SDS011;62197;51.632;13.700;2022-12-16T09:28:31;38.97;;;14.88;;
73859;SDS011;62197;51.632;13.700;2022-12-16T09:31:15;40.38;;;15.75;;
73859;SDS011;62197;51.632;13.700;2022-12-16T09:33:59;27.20;;;12.32;;
73859;SDS011;62197;51.632;13.700;2022-12-16T09:36:42;37.03;;;14.73;;
73859;SDS011;62197;51.632;13.700;2022-12-16T09:39:27;34.40;;;15.52;;
73859;SDS011;62197;51.632;13.700;2022-12-16T09:45:13;46.25;;;15.60;;
73859;SDS011;62197;51.632;13.700;2022-12-16T09:51:12;43.60;;;20.23;;
73859;SDS011;62197;51.632;13.700;2022-12-16T09:53:57;41.28;;;16.38;;
73859;SDS011;62197;51.632;13.700;2022-12-16T09:56:43;30.60;;;13.90;;
73859;SDS011;62197;51.632;13.700;2022-12-16T09:59:36;49.53;;;23.33;;
73859;SDS011;62197;51.632;13.700;2022-12-16T10:02:23;38.30;;;16.85;;
73859;SDS011;62197;51.632;13.700;2022-12-16T10:05:08;32.45;;;13.13;;
73859;SDS011;62197;51.632;13.700;2022-12-16T10:08:02;39.00;;;17.38;;
73859;SDS011;62197;51.632;13.700;2022-12-16T10:10:49;26.73;;;12.77;;
73859;SDS011;62197;51.632;13.700;2022-12-16T10:19:35;24.65;;;8.85;;
73859;SDS011;62197;51.632;13.700;2022-12-16T10:26:07;39.60;;;15.80;;
73859;SDS011;62197;51.632;13.700;2022-12-16T10:28:59;35.25;;;18.58;;
73859;SDS011;62197;51.632;13.700;2022-12-16T10:31:55;34.47;;;17.48;;
73859;SDS011;62197;51.632;13.700;2022-12-16T10:34:39;43.38;;;17.13;;
73859;SDS011;62197;51.632;13.700;2022-12-16T10:40:24;55.65;;;22.30;;
73859;SDS011;62197;51.632;13.700;2022-12-16T10:43:15;32.03;;;15.02;;
73859;SDS011;62197;51.632;13.700;2022-12-16T10:46:10;31.10;;;13.20;;
73859;SDS011;62197;51.632;13.700;2022-12-16T10:48:58;44.97;;;21.48;;
73859;SDS011;62197;51.632;13.700;2022-12-16T10:51:42;41.67;;;16.38;;
73859;SDS011;62197;51.632;13.700;2022-12-16T10:54:31;40.40;;;18.30;;
73859;SDS011;62197;51.632;13.700;2022-12-16T11:00:39;43.05;;;20.90;;
73859;SDS011;62197;51.632;13.700;2022-12-16T11:03:24;43.55;;;16.95;;
73859;SDS011;62197;51.632;13.700;2022-12-16T11:06:14;7.65;;;4.13;;
73859;SDS011;62197;51.632;13.700;2022-12-16T11:09:24;46.50;;;20.05;;
73859;SDS011;62197;51.632;13.700;2022-12-16T11:12:18;46.03;;;17.13;;
73859;SDS011;62197;51.632;13.700;2022-12-16T11:15:21;53.55;;;20.92;;
73859;SDS011;62197;51.632;13.700;2022-12-16T11:18:08;46.22;;;18.30;;
73859;SDS011;62197;51.632;13.700;2022-12-16T11:21:11;39.97;;;15.40;;
73859;SDS011;62197;51.632;13.700;2022-12-16T11:24:11;33.67;;;14.25;;
73859;SDS011;62197;51.632;13.700;2022-12-16T11:27:00;23.02;;;10.15;;
73859;SDS011;62197;51.632;13.700;2022-12-16T11:30:27;38.03;;;17.08;;
73859;SDS011;62197;51.632;13.700;2022-12-16T11:36:15;37.65;;;16.60;;
73859;SDS011;62197;51.632;13.700;2022-12-16T11:39:02;45.97;;;18.10;;
73859;SDS011;62197;51.632;13.700;2022-12-16T11:41:48;46.83;;;20.02;;
73859;SDS011;62197;51.632;13.700;2022-12-16T11:44:42;41.15;;;17.90;;
73859;SDS011;62197;51.632;13.700;2022-12-16T11:50:33;49.30;;;19.10;;
73859;SDS011;62197;51.632;13.700;2022-12-16T11:53:25;39.33;;;17.05;;
73859;SDS011;62197;51.632;13.700;2022-12-16T11:56:29;35.08;;;17.20;;
73859;SDS011;62197;51.632;13.700;2022-12-16T11:59:20;27.70;;;13.82;;
73859;SDS011;62197;51.632;13.700;2022-12-16T12:02:40;39.88;;;16.42;;
73859;SDS011;62197;51.632;13.700;2022-12-16T12:08:51;41.92;;;18.58;;
73859;SDS011;62197;51.632;13.700;2022-12-16T12:11:44;33.83;;;15.20;;
73859;SDS011;62197;51.632;13.700;2022-12-16T12:14:47;41.05;;;19.63;;
73859;SDS011;62197;51.632;13.700;2022-12-16T12:17:54;45.78;;;17.60;;
73859;SDS011;62197;51.632;13.700;2022-12-16T12:20:57;41.35;;;19.27;;
73859;SDS011;62197;51.632;13.700;2022-12-16T12:30:05;37.95;;;17.70;;
73859;SDS011;62197;51.632;13.700;2022-12-16T12:33:02;37.67;;;17.33;;
73859;SDS011;62197;51.632;13.700;2022-12-16T12:36:12;41.08;;;19.92;;
73859;SDS011;62197;51.632;13.700;2022-12-16T12:42:32;38.28;;;18.38;;
73859;SDS011;62197;51.632;13.700;2022-12-16T12:48:46;35.97;;;15.57;;
73859;SDS011;62197;51.632;13.700;2022-12-16T12:51:50;26.20;;;13.15;;
73859;SDS011;62197;51.632;13.700;2022-12-16T12:54:38;22.23;;;10.90;;
73859;SDS011;62197;51.632;13.700;2022-12-16T12:57:30;40.38;;;18.45;;
73859;SDS011;62197;51.632;13.700;2022-12-16T13:00:18;16.02;;;7.30;;
73859;SDS011;62197;51.632;13.700;2022-12-16T13:05:55;43.35;;;17.88;;
73859;SDS011;62197;51.632;13.700;2022-12-16T13:11:27;40.65;;;18.02;;
73859;SDS011;62197;51.632;13.700;2022-12-16T13:17:15;43.80;;;18.33;;
73859;SDS011;62197;51.632;13.700;2022-12-16T13:20:00;46.72;;;19.25;;
73859;SDS011;62197;51.632;13.700;2022-12-16T13:22:45;38.85;;;17.10;;
73859;SDS011;62197;51.632;13.700;2022-12-16T13:31:09;49.25;;;19.33;;
73859;SDS011;62197;51.632;13.700;2022-12-16T13:33:54;52.55;;;23.65;;
73859;SDS011;62197;51.632;13.700;2022-12-16T13:36:51;43.67;;;18.80;;
73859;SDS011;62197;51.632;13.700;2022-12-16T13:39:37;50.63;;;25.00;;
73859;SDS011;62197;51.632;13.700;2022-12-16T13:42:33;40.10;;;16.42;;
73859;SDS011;62197;51.632;13.700;2022-12-16T13:45:35;45.50;;;19.95;;
73859;SDS011;62197;51.632;13.700;2022-12-16T13:48:42;60.15;;;27.75;;
73859;SDS011;62197;51.632;13.700;2022-12-16T13:54:30;53.05;;;19.52;;
73859;SDS011;62197;51.632;13.700;2022-12-16T13:57:19;40.65;;;18.90;;
73859;SDS011;62197;51.632;13.700;2022-12-16T14:00:15;50.85;;;21.00;;
73859;SDS011;62197;51.632;13.700;2022-12-16T14:03:02;55.53;;;22.10;;
73859;SDS011;62197;51.632;13.700;2022-12-16T14:05:52;50.42;;;20.90;;
73859;SDS011;62197;51.632;13.700;2022-12-16T14:08:37;42.35;;;18.55;;
73859;SDS011;62197;51.632;13.700;2022-12-16T14:11:23;50.50;;;19.95;;
73859;SDS011;62197;51.632;13.700;2022-12-16T14:14:19;53.15;;;21.40;;
73859;SDS011;62197;51.632;13.700;2022-12-16T14:17:36;42.13;;;19.20;;
73859;SDS011;62197;51.632;13.700;2022-12-16T14:20:35;54.67;;;21.63;;
73859;SDS011;62197;51.632;13.700;2022-12-16T14:26:17;45.03;;;19.45;;
73859;SDS011;62197;51.632;13.700;2022-12-16T14:29:02;56.83;;;23.95;;
73859;SDS011;62197;51.632;13.700;2022-12-16T14:31:55;47.83;;;21.73;;
73859;SDS011;62197;51.632;13.700;2022-12-16T14:34:39;51.53;;;22.48;;
73859;SDS011;62197;51.632;13.700;2022-12-16T14:37:34;38.05;;;16.98;;
73859;SDS011;62197;51.632;13.700;2022-12-16T14:40:29;53.95;;;24.17;;
73859;SDS011;62197;51.632;13.700;2022-12-16T14:43:18;55.05;;;22.98;;
73859;SDS011;62197;51.632;13.700;2022-12-16T14:46:04;42.28;;;17.15;;
73859;SDS011;62197;51.632;13.700;2022-12-16T14:48:49;53.78;;;21.20;;
73859;SDS011;62197;51.632;13.700;2022-12-16T14:51:37;51.00;;;21.08;;
73859;SDS011;62197;51.632;13.700;2022-12-16T14:54:35;53.40;;;24.23;;
73859;SDS011;62197;51.632;13.700;2022-12-16T14:57:26;52.33;;;23.90;;
73859;SDS011;62197;51.632;13.700;2022-12-16T15:00:13;62.88;;;23.60;;
73859;SDS011;62197;51.632;13.700;2022-12-16T15:06:39;62.13;;;25.63;;
73859;SDS011;62197;51.632;13.700;2022-12-16T15:09:29;54.97;;;23.20;;
73859;SDS011;62197;51.632;13.700;2022-12-16T15:12:17;59.10;;;26.23;;
73859;SDS011;62197;51.632;13.700;2022-12-16T15:15:05;54.67;;;25.75;;
73859;SDS011;62197;51.632;13.700;2022-12-16T15:17:54;54.35;;;23.48;;
73859;SDS011;62197;51.632;13.700;2022-12-16T15:20:52;55.95;;;23.85;;
73859;SDS011;62197;51.632;13.700;2022-12-16T15:23:38;65.57;;;25.25;;
73859;SDS011;62197;51.632;13.700;2022-12-16T15:26:24;56.65;;;25.05;;
73859;SDS011;62197;51.632;13.700;2022-12-16T15:29:25;56.20;;;23.17;;
73859;SDS011;62197;51.632;13.700;2022-12-16T15:35:11;62.53;;;26.58;;
73859;SDS011;62197;51.632;13.700;2022-12-16T15:40:59;63.53;;;24.40;;
73859;SDS011;62197;51.632;13.700;2022-12-16T15:43:44;58.95;;;26.23;;
73859;SDS011;62197;51.632;13.700;2022-12-16T15:46:29;59.45;;;25.40;;
73859;SDS011;62197;51.632;13.700;2022-12-16T15:49:21;71.72;;;27.90;;
73859;SDS011;62197;51.632;13.700;2022-12-16T15:52:21;62.25;;;26.30;;
73859;SDS011;62197;51.632;13.700;2022-12-16T15:55:30;65.30;;;26.17;;
73859;SDS011;62197;51.632;13.700;2022-12-16T15:58:29;60.63;;;26.15;;
73859;SDS011;62197;51.632;13.700;2022-12-16T16:01:15;66.22;;;28.20;;
73859;SDS011;62197;51.632;13.700;2022-12-16T16:04:01;57.50;;;26.67;;
73859;SDS011;62197;51.632;13.700;2022-12-16T16:06:49;65.72;;;26.80;;
73859;SDS011;62197;51.632;13.700;2022-12-16T16:09:36;62.70;;;26.45;;
73859;SDS011;62197;51.632;13.700;2022-12-16T16:12:22;65.15;;;26.15;;
73859;SDS011;62197;51.632;13.700;2022-12-16T16:15:09;60.42;;;25.45;;
73859;SDS011;62197;51.632;13.700;2022-12-16T16:17:55;64.35;;;28.15;;
73859;SDS011;62197;51.632;13.700;2022-12-16T16:20:47;67.85;;;29.00;;
73859;SDS011;62197;51.632;13.700;2022-12-16T16:23:31;76.30;;;29.17;;
73859;SDS011;62197;51.632;13.700;2022-12-16T16:26:16;65.93;;;27.42;;
73859;SDS011;62197;51.632;13.700;2022-12-16T16:29:02;65.13;;;29.60;;
73859;SDS011;62197;51.632;13.700;2022-12-16T16:31:47;69.40;;;29.90;;
73859;SDS011;62197;51.632;13.700;2022-12-16T16:34:30;65.57;;;28.55;;
73859;SDS011;62197;51.632;13.700;2022-12-16T16:37:15;72.93;;;31.40;;
73859;SDS011;62197;51.632;13.700;2022-12-16T16:40:09;73.90;;;28.23;;
73859;SDS011;62197;51.632;13.700;2022-12-16T16:43:07;67.20;;;28.58;;
73859;SDS011;62197;51.632;13.700;2022-12-16T16:45:51;59.72;;;26.60;;
73859;SDS011;62197;51.632;13.700;2022-12-16T16:48:37;64.28;;;26.25;;
73859;SDS011;62197;51.632;13.700;2022-12-16T16:51:21;72.72;;;28.83;;
73859;SDS011;62197;51.632;13.700;2022-12-16T16:54:05;63.20;;;26.00;;
73859;SDS011;62197;51.632;13.700;2022-12-16T16:56:49;70.93;;;29.67;;
73859;SDS011;62197;51.632;13.700;2022-12-16T16:59:33;66.95;;;27.48;;
73859;SDS011;62197;51.632;13.700;2022-12-16T17:02:19;62.05;;;26.80;;
73859;SDS011;62197;51.632;13.700;2022-12-16T17:05:05;66.35;;;25.92;;
73859;SDS011;62197;51.632;13.700;2022-12-16T17:07:50;52.03;;;25.83;;